Time;durP1;ratioP1;P1;durP2;ratioP2;P2;SDS_P1;SDS_P2;PMS_P1;PMS_P2;Temp;Humidity;BMP_temperature;BMP_pressure;BME280_temperature;BME280_humidity;BME280_pressure;Samples;Min_cycle;Max_cycle;Signal;HPM_P1;HPM_P2
2022/09/18 00:02:57;;;;;;;2.30;0.60;;;;;;;;;;10330918;28;20689;-79
2022/09/18 00:08:03;;;;;;;1.10;0.50;;;;;;;;;;10312579;28;20065;-79
2022/09/18 00:13:06;;;;;;;3.13;0.90;;;;;;;;;;10312745;28;20050;-79
2022/09/18 00:18:10;;;;;;;3.78;1.02;;;;;;;;;;10311852;28;20042;-79
2022/09/18 00:23:15;;;;;;;1.45;0.70;;;;;;;;;;10337658;28;20035;-79
2022/09/18 00:28:19;;;;;;;2.20;0.73;;;;;;;;;;10336442;28;20042;-79
2022/09/18 00:33:22;;;;;;;2.42;0.73;;;;;;;;;;10319455;28;20050;-79
2022/09/18 00:38:30;;;;;;;1.40;0.73;;;;;;;;;;10318257;28;20102;-79
2022/09/18 00:43:35;;;;;;;;;;;;;;;;;;10319422;28;20048;-79
2022/09/18 00:48:43;;;;;;;2.30;0.65;;;;;;;;;;10310613;28;19985;-79
2022/09/18 00:53:54;;;;;;;1.55;0.60;;;;;;;;;;10318053;28;20538;-79
2022/09/18 00:58:58;;;;;;;1.63;0.40;;;;;;;;;;10317142;28;20034;-79
2022/09/18 01:04:02;;;;;;;1.55;0.75;;;;;;;;;;10317456;28;20038;-78
2022/09/18 01:09:13;;;;;;;2.35;1.10;;;;;;;;;;10334217;28;20124;-79
2022/09/18 01:14:32;;;;;;;1.95;0.60;;;;;;;;;;10317616;28;20046;-80
2022/09/18 01:20:04;;;;;;;1.40;0.43;;;;;;;;;;10309136;28;20697;-79
2022/09/18 01:25:23;;;;;;;3.05;0.52;;;;;;;;;;10332187;28;20041;-78
2022/09/18 01:30:29;;;;;;;1.65;0.75;;;;;;;;;;10333074;28;20081;-79
2022/09/18 01:35:38;;;;;;;2.88;0.75;;;;;;;;;;10316405;28;20567;-79
2022/09/18 01:40:49;;;;;;;2.55;0.82;;;;;;;;;;10313312;28;20061;-79
2022/09/18 01:45:58;;;;;;;1.15;0.43;;;;;;;;;;10323617;28;20073;-79
2022/09/18 01:51:09;;;;;;;0.63;0.20;;;;;;;;;;10320304;28;20047;-79
2022/09/18 01:56:19;;;;;;;1.58;0.70;;;;;;;;;;10318463;28;20035;-80
2022/09/18 02:06:51;;;;;;;0.88;0.35;;;;;;;;;;10332583;28;20044;-79
2022/09/18 02:12:00;;;;;;;0.38;0.35;;;;;;;;;;10317135;28;21211;-79
2022/09/18 02:17:18;;;;;;;2.08;0.80;;;;;;;;;;10317974;28;20045;-79
2022/09/18 02:22:24;;;;;;;1.25;0.50;;;;;;;;;;10333370;28;20250;-79
2022/09/18 02:27:32;;;;;;;1.88;0.55;;;;;;;;;;10316181;28;20034;-79
2022/09/18 02:32:39;;;;;;;2.03;0.60;;;;;;;;;;10308344;28;20077;-78
2022/09/18 02:37:54;;;;;;;1.98;0.52;;;;;;;;;;10315181;28;20050;-80
2022/09/18 02:43:15;;;;;;;0.93;0.40;;;;;;;;;;10315068;28;20092;-79
2022/09/18 02:48:31;;;;;;;1.35;0.35;;;;;;;;;;10313954;28;20120;-79
2022/09/18 02:53:40;;;;;;;5.05;0.60;;;;;;;;;;10314093;28;20266;-78
2022/09/18 02:58:50;;;;;;;1.23;0.40;;;;;;;;;;10307309;28;20506;-79
2022/09/18 03:04:01;;;;;;;1.73;0.52;;;;;;;;;;10332252;28;20074;-80
2022/09/18 03:09:17;;;;;;;1.83;0.40;;;;;;;;;;10304835;28;20073;-80
2022/09/18 03:14:23;;;;;;;1.35;0.50;;;;;;;;;;10314130;28;20703;-79
2022/09/18 03:19:28;;;;;;;0.20;0.20;;;;;;;;;;10330849;28;20391;-79
2022/09/18 03:24:32;;;;;;;;;;;;;;;;;;10314937;28;20069;-80
2022/09/18 03:29:37;;;;;;;1.58;0.55;;;;;;;;;;10322115;28;19963;-79
2022/09/18 03:34:42;;;;;;;0.47;0.40;;;;;;;;;;10314022;28;20156;-80
2022/09/18 03:39:47;;;;;;;0.85;0.35;;;;;;;;;;10312733;28;20179;-78
2022/09/18 03:44:51;;;;;;;3.22;0.63;;;;;;;;;;10313183;28;20038;-79
2022/09/18 03:50:05;;;;;;;0.82;0.43;;;;;;;;;;10331104;28;20038;-80
2022/09/18 03:55:11;;;;;;;0.98;0.60;;;;;;;;;;10320230;28;20565;-80
2022/09/18 04:00:33;;;;;;;0.75;0.40;;;;;;;;;;10324612;28;20676;-79
2022/09/18 04:05:44;;;;;;;1.35;0.40;;;;;;;;;;10317771;28;20042;-80
2022/09/18 04:11:17;;;;;;;2.17;0.73;;;;;;;;;;10340864;28;20058;-79
2022/09/18 04:16:20;;;;;;;0.40;0.30;;;;;;;;;;10323003;28;20049;-79
2022/09/18 04:21:26;;;;;;;1.85;0.57;;;;;;;;;;10322128;28;20121;-79
2022/09/18 04:26:35;;;;;;;0.95;0.47;;;;;;;;;;10322708;28;20458;-79
2022/09/18 04:31:41;;;;;;;1.50;0.40;;;;;;;;;;10320839;28;20101;-79
2022/09/18 04:36:50;;;;;;;6.00;1.02;;;;;;;;;;10320036;28;20058;-80
2022/09/18 04:41:54;;;;;;;2.60;0.77;;;;;;;;;;10320418;28;20443;-78
2022/09/18 04:46:59;;;;;;;2.15;0.50;;;;;;;;;;10320053;28;20043;-79
2022/09/18 04:52:04;;;;;;;0.70;0.40;;;;;;;;;;10319376;28;20512;-79
2022/09/18 04:57:08;;;;;;;1.73;0.73;;;;;;;;;;10336136;28;20038;-79
2022/09/18 05:02:12;;;;;;;1.15;0.50;;;;;;;;;;10317787;28;20042;-79
2022/09/18 05:07:17;;;;;;;1.13;0.60;;;;;;;;;;10317663;28;20049;-78
2022/09/18 05:12:21;;;;;;;1.90;0.67;;;;;;;;;;10316549;28;20050;-78
2022/09/18 05:17:25;;;;;;;0.88;0.35;;;;;;;;;;10335337;28;20038;-79
2022/09/18 05:22:38;;;;;;;0.77;0.43;;;;;;;;;;10316941;28;20034;-79
2022/09/18 05:27:54;;;;;;;2.00;0.55;;;;;;;;;;10316730;28;20042;-79
2022/09/18 05:33:01;;;;;;;0.20;0.20;;;;;;;;;;10316628;28;20045;-79
2022/09/18 05:38:07;;;;;;;0.70;0.38;;;;;;;;;;10316476;28;20039;-79
2022/09/18 05:43:12;;;;;;;;;;;;;;;;;;10317190;28;20038;-80
2022/09/18 05:48:16;;;;;;;1.20;0.30;;;;;;;;;;10315825;28;20306;-79
2022/09/18 05:53:22;;;;;;;0.32;0.30;;;;;;;;;;10315809;28;20061;-79
2022/09/18 05:58:53;;;;;;;0.20;0.20;;;;;;;;;;10330793;28;20051;-79
2022/09/18 06:03:58;;;;;;;0.52;0.20;;;;;;;;;;10316858;28;20050;-79
2022/09/18 06:09:05;;;;;;;0.30;0.20;;;;;;;;;;10322917;28;20081;-80
2022/09/18 06:14:09;;;;;;;0.60;0.22;;;;;;;;;;10318855;28;20046;-79
2022/09/18 06:19:13;;;;;;;1.27;0.50;;;;;;;;;;10317197;28;20589;-78
2022/09/18 06:24:21;;;;;;;0.55;0.32;;;;;;;;;;10316951;28;20042;-79
2022/09/18 06:29:34;;;;;;;0.98;0.38;;;;;;;;;;10316537;28;20045;-79
2022/09/18 06:34:46;;;;;;;0.50;0.45;;;;;;;;;;10316046;28;20046;-80
2022/09/18 06:39:52;;;;;;;0.88;0.40;;;;;;;;;;10315056;28;20038;-79
2022/09/18 06:45:14;;;;;;;0.68;0.30;;;;;;;;;;10333290;28;20136;-79
2022/09/18 06:50:20;;;;;;;0.60;0.30;;;;;;;;;;10314602;28;20054;-79
2022/09/18 06:55:26;;;;;;;1.77;0.70;;;;;;;;;;10314984;28;20042;-79
2022/09/18 07:00:30;;;;;;;0.35;0.35;;;;;;;;;;10314343;28;20043;-79
2022/09/18 07:05:39;;;;;;;2.20;0.67;;;;;;;;;;10314040;28;20038;-78
2022/09/18 07:10:45;;;;;;;0.95;0.40;;;;;;;;;;10312956;28;20289;-80
2022/09/18 07:15:48;;;;;;;0.30;0.30;;;;;;;;;;10331202;28;20050;-79
2022/09/18 07:20:54;;;;;;;0.40;0.30;;;;;;;;;;10313561;28;20096;-79
2022/09/18 07:26:09;;;;;;;1.80;0.50;;;;;;;;;;10312330;28;20042;-80
2022/09/18 07:31:13;;;;;;;0.30;0.30;;;;;;;;;;10311633;28;20054;-79
2022/09/18 07:36:19;;;;;;;1.53;0.40;;;;;;;;;;10311931;28;20035;-80
2022/09/18 07:41:26;;;;;;;3.17;1.13;;;;;;;;;;10312105;28;20035;-79
2022/09/18 07:46:30;;;;;;;1.20;0.30;;;;;;;;;;10311947;28;20065;-79
2022/09/18 07:51:37;;;;;;;2.03;0.60;;;;;;;;;;10304461;28;20050;-79
2022/09/18 07:56:42;;;;;;;2.33;0.40;;;;;;;;;;10312540;28;20039;-78
2022/09/18 08:01:54;;;;;;;0.35;0.35;;;;;;;;;;10311300;28;20050;-78
2022/09/18 08:07:03;;;;;;;0.43;0.43;;;;;;;;;;10312376;28;20046;-78
2022/09/18 08:12:26;;;;;;;1.45;0.60;;;;;;;;;;10328540;28;20046;-79
2022/09/18 08:17:48;;;;;;;2.17;0.88;;;;;;;;;;10329851;28;20066;-79
2022/09/18 08:23:14;;;;;;;2.40;1.40;;;;;;;;;;10332840;28;20050;-78
2022/09/18 08:28:20;;;;;;;4.82;1.48;;;;;;;;;;10314971;28;20454;-79
2022/09/18 08:33:31;;;;;;;1.15;0.57;;;;;;;;;;10315017;28;20120;-79
2022/09/18 08:38:39;;;;;;;3.83;1.35;;;;;;;;;;10305622;28;20047;-79
2022/09/18 08:44:24;;;;;;;3.42;1.40;;;;;;;;;;10321573;28;20514;-80
2022/09/18 08:49:32;;;;;;;3.40;1.30;;;;;;;;;;10319806;28;20069;-79
2022/09/18 08:54:47;;;;;;;2.25;0.70;;;;;;;;;;10313436;28;20046;-79
2022/09/18 09:00:11;;;;;;;3.88;1.10;;;;;;;;;;10319237;28;20160;-79
2022/09/18 09:05:23;;;;;;;1.45;0.98;;;;;;;;;;10319463;28;20073;-79
2022/09/18 09:10:50;;;;;;;2.78;0.75;;;;;;;;;;10319313;28;20043;-79
2022/09/18 09:16:02;;;;;;;3.20;0.80;;;;;;;;;;10312371;28;20047;-80
2022/09/18 09:21:17;;;;;;;3.70;0.88;;;;;;;;;;10317194;28;20414;-79
2022/09/18 09:26:23;;;;;;;3.15;0.90;;;;;;;;;;10317503;28;20073;-79
2022/09/18 09:31:50;;;;;;;1.75;0.70;;;;;;;;;;10310119;28;20129;-79
2022/09/18 09:37:34;;;;;;;2.17;0.80;;;;;;;;;;10298376;28;20054;-79
2022/09/18 09:42:44;;;;;;;2.67;1.03;;;;;;;;;;10309159;28;20057;-79
2022/09/18 09:47:55;;;;;;;2.28;0.70;;;;;;;;;;10316114;28;20282;-78
2022/09/18 09:53:06;;;;;;;1.75;0.52;;;;;;;;;;10315649;28;20104;-78
2022/09/18 09:58:18;;;;;;;0.88;0.30;;;;;;;;;;10316027;28;20104;-79
2022/09/18 10:03:38;;;;;;;1.55;0.55;;;;;;;;;;10315637;28;20092;-79
2022/09/18 10:08:49;;;;;;;1.10;0.60;;;;;;;;;;10316251;28;20050;-79
2022/09/18 10:13:58;;;;;;;1.13;0.52;;;;;;;;;;10314987;28;20070;-79
2022/09/18 10:19:04;;;;;;;1.45;0.50;;;;;;;;;;10314818;28;20042;-79
2022/09/18 10:24:17;;;;;;;1.53;0.73;;;;;;;;;;10314653;28;20088;-80
2022/09/18 10:29:21;;;;;;;1.90;0.60;;;;;;;;;;10313780;28;20479;-79
2022/09/18 10:34:38;;;;;;;2.25;0.80;;;;;;;;;;10319461;28;20046;-79
2022/09/18 10:39:50;;;;;;;1.27;0.50;;;;;;;;;;10317961;28;20038;-79
2022/09/18 10:44:57;;;;;;;1.13;0.55;;;;;;;;;;10317644;28;20054;-79
2022/09/18 10:50:17;;;;;;;1.10;0.70;;;;;;;;;;10316199;28;20506;-79
2022/09/18 10:55:25;;;;;;;2.03;0.90;;;;;;;;;;10315414;28;20096;-79
2022/09/18 11:00:40;;;;;;;2.72;0.90;;;;;;;;;;10314802;28;20034;-79
2022/09/18 11:05:52;;;;;;;1.00;0.60;;;;;;;;;;10314600;28;20076;-79
2022/09/18 11:11:02;;;;;;;1.48;0.80;;;;;;;;;;10314223;28;20601;-78
2022/09/18 11:16:12;;;;;;;1.45;0.90;;;;;;;;;;10313014;28;20069;-79
2022/09/18 11:21:17;;;;;;;1.42;0.60;;;;;;;;;;10313982;28;20046;-79
2022/09/18 11:26:28;;;;;;;2.45;1.13;;;;;;;;;;10313842;28;20064;-78
2022/09/18 11:31:43;;;;;;;3.05;0.85;;;;;;;;;;10312578;28;20038;-79
2022/09/18 11:36:54;;;;;;;3.33;1.20;;;;;;;;;;10306905;28;20050;-79
2022/09/18 11:41:58;;;;;;;3.88;1.27;;;;;;;;;;10312383;28;20073;-78
2022/09/18 11:47:29;;;;;;;1.63;0.93;;;;;;;;;;10329192;28;20038;-79
2022/09/18 11:52:39;;;;;;;3.42;1.58;;;;;;;;;;10311410;28;20510;-79
2022/09/18 11:57:49;;;;;;;1.15;0.60;;;;;;;;;;10304892;28;20057;-79
2022/09/18 12:03:04;;;;;;;1.35;0.82;;;;;;;;;;10328203;28;20046;-79
2022/09/18 12:08:21;;;;;;;3.63;1.17;;;;;;;;;;10328054;28;20042;-79
2022/09/18 12:13:39;;;;;;;2.83;0.98;;;;;;;;;;10311591;28;20282;-79
2022/09/18 12:18:51;;;;;;;3.20;0.90;;;;;;;;;;10317366;28;20134;-79
2022/09/18 12:24:02;;;;;;;2.92;0.90;;;;;;;;;;10319296;28;20049;-79
2022/09/18 12:29:19;;;;;;;1.25;0.60;;;;;;;;;;10318221;28;20062;-79
2022/09/18 12:34:32;;;;;;;2.10;0.90;;;;;;;;;;10335489;28;20038;-78
2022/09/18 12:39:53;;;;;;;2.80;0.90;;;;;;;;;;10309895;28;20057;-78
2022/09/18 12:45:30;;;;;;;2.17;0.95;;;;;;;;;;10319758;28;20599;-79
2022/09/18 12:50:50;;;;;;;1.45;1.13;;;;;;;;;;10338094;28;20089;-79
2022/09/18 12:56:15;;;;;;;1.85;1.13;;;;;;;;;;10333262;28;20050;-79
2022/09/18 13:01:28;;;;;;;2.50;0.90;;;;;;;;;;10337368;28;20035;-79
2022/09/18 13:06:37;;;;;;;4.78;1.15;;;;;;;;;;10319461;28;20728;-79
2022/09/18 13:11:46;;;;;;;1.88;0.90;;;;;;;;;;10336782;28;20043;-79
2022/09/18 13:16:52;;;;;;;2.95;1.35;;;;;;;;;;10335913;28;20145;-79
2022/09/18 13:21:58;;;;;;;4.15;1.85;;;;;;;;;;10335890;28;20063;-78
2022/09/18 13:27:04;;;;;;;;;;;;;;;;;;10317336;28;20046;-79
2022/09/18 13:32:08;;;;;;;1.85;1.10;;;;;;;;;;10315948;28;20005;-79
2022/09/18 13:37:14;;;;;;;2.85;1.33;;;;;;;;;;10316759;28;20660;-79
2022/09/18 13:42:32;;;;;;;1.73;0.85;;;;;;;;;;10333697;28;20042;-79
2022/09/18 13:47:57;;;;;;;1.95;1.20;;;;;;;;;;10324894;28;20133;-79
2022/09/18 13:53:04;;;;;;;1.45;0.80;;;;;;;;;;10315972;28;20507;-78
2022/09/18 13:58:38;;;;;;;2.00;1.00;;;;;;;;;;10332267;28;20085;-79
2022/09/18 14:03:42;;;;;;;2.95;1.00;;;;;;;;;;10316415;28;20046;-78
2022/09/18 14:08:45;;;;;;;2.47;1.10;;;;;;;;;;10314464;28;20057;-78
2022/09/18 14:13:54;;;;;;;1.50;1.13;;;;;;;;;;10314712;28;20085;-79
2022/09/18 14:19:01;;;;;;;1.83;0.85;;;;;;;;;;10313866;28;20133;-79
2022/09/18 14:24:24;;;;;;;1.73;0.77;;;;;;;;;;10314735;28;20046;-79
2022/09/18 14:29:32;;;;;;;1.42;0.60;;;;;;;;;;10313216;28;20096;-79
2022/09/18 14:34:39;;;;;;;1.02;0.85;;;;;;;;;;10331749;28;20043;-79
2022/09/18 14:39:45;;;;;;;1.38;0.68;;;;;;;;;;10312752;28;20062;-79
2022/09/18 14:44:51;;;;;;;;;;;;;;;;;;10313753;28;20054;-79
2022/09/18 14:49:54;;;;;;;1.65;0.65;;;;;;;;;;10312891;28;19929;-79
2022/09/18 14:55:08;;;;;;;2.25;0.63;;;;;;;;;;10330015;28;20046;-79
2022/09/18 15:00:19;;;;;;;1.70;0.70;;;;;;;;;;10313691;28;20450;-78
2022/09/18 15:05:26;;;;;;;1.38;0.80;;;;;;;;;;10332290;28;20069;-79
2022/09/18 15:10:30;;;;;;;2.10;0.70;;;;;;;;;;10334249;28;20058;-79
2022/09/18 15:15:38;;;;;;;1.45;0.70;;;;;;;;;;10315802;28;20122;-79
2022/09/18 15:20:49;;;;;;;0.73;0.55;;;;;;;;;;10308959;28;20415;-79
2022/09/18 15:25:55;;;;;;;1.85;0.80;;;;;;;;;;10315876;28;20125;-79
2022/09/18 15:31:03;;;;;;;1.07;0.70;;;;;;;;;;10331181;28;20073;-79
2022/09/18 15:36:07;;;;;;;0.95;0.40;;;;;;;;;;10314272;28;20302;-79
2022/09/18 15:41:30;;;;;;;1.15;0.40;;;;;;;;;;10313706;28;20555;-79
2022/09/18 15:46:36;;;;;;;1.30;0.52;;;;;;;;;;10313294;28;20046;-80
2022/09/18 15:51:40;;;;;;;0.50;0.30;;;;;;;;;;10311468;28;20034;-80
2022/09/18 15:56:51;;;;;;;2.28;1.00;;;;;;;;;;10321296;28;20437;-80
2022/09/18 16:01:58;;;;;;;1.83;0.90;;;;;;;;;;10313356;28;20050;-80
2022/09/18 16:07:04;;;;;;;2.70;0.90;;;;;;;;;;10301838;28;20054;-80
2022/09/18 16:12:37;;;;;;;2.88;0.98;;;;;;;;;;10310264;28;20503;-80
2022/09/18 16:17:53;;;;;;;1.42;0.75;;;;;;;;;;10266637;28;20045;-79
2022/09/18 16:23:12;;;;;;;2.10;0.73;;;;;;;;;;10337424;28;20035;-80
2022/09/18 16:28:24;;;;;;;1.02;0.30;;;;;;;;;;10319019;28;20070;-80
2022/09/18 16:33:31;;;;;;;0.90;0.60;;;;;;;;;;10319611;28;20046;-80
2022/09/18 16:38:34;;;;;;;0.88;0.50;;;;;;;;;;10318170;28;20046;-80
2022/09/18 16:43:41;;;;;;;1.85;0.68;;;;;;;;;;10310678;28;20046;-80
2022/09/18 16:48:46;;;;;;;0.73;0.52;;;;;;;;;;10317673;28;20046;-79
2022/09/18 16:53:50;;;;;;;0.82;0.55;;;;;;;;;;10302362;28;20525;-80
2022/09/18 16:58:56;;;;;;;0.50;0.50;;;;;;;;;;10302367;28;20066;-80
2022/09/18 17:04:01;;;;;;;1.80;0.63;;;;;;;;;;10307023;28;20046;-79
2022/09/18 17:09:06;;;;;;;0.80;0.43;;;;;;;;;;10311885;28;20042;-79
2022/09/18 17:14:09;;;;;;;0.70;0.50;;;;;;;;;;10338608;28;20541;-80
2022/09/18 17:19:15;;;;;;;2.78;0.50;;;;;;;;;;10328137;28;20066;-79
2022/09/18 17:24:22;;;;;;;1.50;0.57;;;;;;;;;;10336955;28;20057;-79
2022/09/18 17:29:26;;;;;;;0.75;0.32;;;;;;;;;;10337079;28;20050;-80
2022/09/18 17:34:31;;;;;;;1.92;1.00;;;;;;;;;;10318345;28;20046;-80
2022/09/18 17:39:35;;;;;;;2.13;0.90;;;;;;;;;;10317929;28;20046;-80
2022/09/18 17:44:39;;;;;;;1.20;0.88;;;;;;;;;;10328175;28;20057;-80
2022/09/18 17:49:44;;;;;;;3.97;1.23;;;;;;;;;;10317463;28;20058;-80
2022/09/18 17:54:47;;;;;;;1.20;0.65;;;;;;;;;;10334645;28;20048;-79
2022/09/18 17:59:51;;;;;;;0.93;0.70;;;;;;;;;;10333620;28;20051;-79
2022/09/18 18:04:56;;;;;;;2.80;1.30;;;;;;;;;;10316243;28;20067;-79
2022/09/18 18:09:59;;;;;;;1.35;1.10;;;;;;;;;;10315963;28;20691;-80
2022/09/18 18:15:03;;;;;;;1.35;0.70;;;;;;;;;;10311797;28;20046;-80
2022/09/18 18:20:13;;;;;;;1.60;0.68;;;;;;;;;;10303599;28;20073;-79
2022/09/18 18:25:17;;;;;;;0.70;0.70;;;;;;;;;;10309104;28;20522;-79
2022/09/18 18:30:22;;;;;;;2.45;0.80;;;;;;;;;;10311313;28;20054;-79
2022/09/18 18:35:30;;;;;;;0.60;0.60;;;;;;;;;;10309890;28;20125;-79
2022/09/18 18:40:36;;;;;;;0.50;0.45;;;;;;;;;;10328511;28;20657;-79
2022/09/18 18:45:51;;;;;;;0.40;0.38;;;;;;;;;;10311210;28;20043;-79
2022/09/18 18:50:58;;;;;;;0.35;0.35;;;;;;;;;;10299441;28;20086;-78
2022/09/18 18:56:02;;;;;;;0.75;0.30;;;;;;;;;;10306298;28;20070;-77
2022/09/18 19:01:06;;;;;;;0.22;0.22;;;;;;;;;;10299149;28;20636;-78
2022/09/18 19:06:13;;;;;;;0.20;0.20;;;;;;;;;;10298249;28;20038;-81
2022/09/18 19:11:18;;;;;;;0.32;0.20;;;;;;;;;;10299886;28;20053;-80
2022/09/18 19:16:23;;;;;;;0.20;0.20;;;;;;;;;;10298404;28;20072;-78
2022/09/18 19:21:28;;;;;;;0.17;0.13;;;;;;;;;;10314583;28;20065;-80
2022/09/18 19:26:34;;;;;;;0.10;0.10;;;;;;;;;;10327182;28;20078;-79
2022/09/18 19:31:39;;;;;;;0.20;0.20;;;;;;;;;;10305394;28;20129;-81
2022/09/18 19:36:45;;;;;;;0.10;0.10;;;;;;;;;;10305318;28;20042;-81
2022/09/18 19:41:52;;;;;;;;;;;;;;;;;;10295724;28;20042;-79
2022/09/18 19:46:57;;;;;;;0.30;0.30;;;;;;;;;;10302163;28;19930;-79
2022/09/18 19:52:03;;;;;;;0.45;0.20;;;;;;;;;;10321248;28;20042;-78
2022/09/18 19:57:07;;;;;;;0.52;0.20;;;;;;;;;;10306714;28;20102;-80
2022/09/18 20:02:11;;;;;;;0.32;0.20;;;;;;;;;;10300557;28;20045;-80
2022/09/18 20:07:16;;;;;;;0.20;0.20;;;;;;;;;;10294936;28;20042;-78
2022/09/18 20:12:20;;;;;;;0.32;0.20;;;;;;;;;;10295901;28;20046;-78
2022/09/18 20:17:24;;;;;;;0.75;0.40;;;;;;;;;;10296561;28;20395;-83
2022/09/18 20:22:29;;;;;;;0.17;0.17;;;;;;;;;;10302449;28;20456;-79
2022/09/18 20:27:36;;;;;;;0.75;0.30;;;;;;;;;;10314943;28;20046;-79
2022/09/18 20:32:40;;;;;;;0.45;0.20;;;;;;;;;;10298517;28;20292;-78
2022/09/18 20:37:44;;;;;;;0.73;0.32;;;;;;;;;;10321325;28;20138;-79
2022/09/18 20:42:50;;;;;;;0.30;0.30;;;;;;;;;;10305245;28;20042;-78
2022/09/18 20:47:58;;;;;;;0.20;0.20;;;;;;;;;;10305353;28;20502;-79
2022/09/18 20:53:04;;;;;;;0.30;0.30;;;;;;;;;;10322949;28;20085;-78
2022/09/18 20:58:08;;;;;;;0.20;0.20;;;;;;;;;;10305294;28;20050;-78
2022/09/18 21:03:13;;;;;;;0.30;0.30;;;;;;;;;;10315239;28;20077;-78
2022/09/18 21:08:18;;;;;;;0.40;0.20;;;;;;;;;;10304458;28;20053;-78
2022/09/18 21:13:22;;;;;;;0.30;0.30;;;;;;;;;;10302827;28;20035;-78
2022/09/18 21:18:25;;;;;;;0.40;0.32;;;;;;;;;;10322574;28;20289;-78
2022/09/18 21:28:51;;;;;;;0.50;0.50;;;;;;;;;;10297152;28;20534;-78
2022/09/18 21:33:58;;;;;;;0.80;0.30;;;;;;;;;;10317332;28;20038;-79
2022/09/18 21:39:02;;;;;;;0.20;0.20;;;;;;;;;;10331396;28;20065;-80
2022/09/18 21:44:07;;;;;;;0.40;0.30;;;;;;;;;;10346417;28;20050;-77
2022/09/18 21:49:11;;;;;;;0.43;0.40;;;;;;;;;;10303213;28;20052;-79
2022/09/18 21:54:18;;;;;;;0.57;0.30;;;;;;;;;;10301708;28;20034;-79
2022/09/18 21:59:24;;;;;;;0.25;0.25;;;;;;;;;;10319976;28;20384;-79
2022/09/18 22:04:31;;;;;;;0.40;0.40;;;;;;;;;;10302000;28;20546;-79
2022/09/18 22:09:37;;;;;;;;;;;;;;;;;;10326642;28;20050;-79
2022/09/18 22:14:40;;;;;;;0.95;0.40;;;;;;;;;;10304460;28;19921;-79
2022/09/18 22:19:43;;;;;;;0.45;0.32;;;;;;;;;;10302256;28;20608;-79
2022/09/18 22:24:48;;;;;;;2.67;0.60;;;;;;;;;;10318586;28;20046;-79
2022/09/18 22:29:52;;;;;;;0.50;0.35;;;;;;;;;;10299138;28;20054;-79
2022/09/18 22:34:55;;;;;;;2.35;0.30;;;;;;;;;;10314369;28;20050;-79
2022/09/18 22:40:00;;;;;;;1.00;0.70;;;;;;;;;;10314341;28;20050;-76
2022/09/18 22:45:05;;;;;;;0.98;0.32;;;;;;;;;;10318294;28;20411;-79
2022/09/18 22:50:08;;;;;;;0.40;0.30;;;;;;;;;;10297681;28;20584;-82
2022/09/18 22:55:13;;;;;;;0.45;0.40;;;;;;;;;;10314850;28;20060;-78
2022/09/18 23:00:17;;;;;;;1.85;0.20;;;;;;;;;;10299449;28;20046;-78
2022/09/18 23:05:20;;;;;;;0.80;0.40;;;;;;;;;;10297917;28;20038;-81
2022/09/18 23:10:25;;;;;;;0.30;0.20;;;;;;;;;;10298827;28;20141;-78
2022/09/18 23:15:28;;;;;;;0.43;0.30;;;;;;;;;;10323823;28;20065;-78
2022/09/18 23:20:31;;;;;;;0.13;0.13;;;;;;;;;;10316113;28;20047;-79
2022/09/18 23:25:37;;;;;;;0.35;0.25;;;;;;;;;;10297191;28;20129;-78
2022/09/18 23:30:41;;;;;;;0.20;0.20;;;;;;;;;;10292667;28;20572;-79
2022/09/18 23:35:44;;;;;;;0.43;0.30;;;;;;;;;;10297594;28;20050;-80
2022/09/18 23:40:49;;;;;;;0.70;0.30;;;;;;;;;;10301643;28;20464;-79
2022/09/18 23:45:52;;;;;;;0.32;0.25;;;;;;;;;;10291421;28;20042;-78
2022/09/18 23:50:58;;;;;;;0.65;0.30;;;;;;;;;;10304786;28;20061;-79
2022/09/18 23:56:05;;;;;;;1.02;0.38;;;;;;;;;;10301013;28;20414;-79
